West Ferrisburgh, Vermont
Current Conditions -  °F | °C
As of 4:55 PM on Saturday 25 Oct 2014 (Local Time) from K6B0 Reporting Station
Broken Clouds Broken Clouds  
Wind Chill: 14°   Ceiling: 10000
Heat Index: 14°   Visibility: 10mi
Dew Point:   Wind: 6mph
Humidity: 65%   Direction: 160°SSE
Pressure: 29.56"   Gusts: NA
Location:  44.0804°N, 73.3324°W
Report Text: K6B0 252055Z AUTO 16005KT 10SM SCT060 BKN100 14/07 A2956 RMK AO2 T01350071
Loading
Personal Weather Stations






























Interactive Weather Map
Tropical Storm Tracking
New forecast layout! Learn more

10-Day Weather Forecast

Advertisements
Track Severe Weather on mobile